Hauptseite
METAR-TAF:

METAR-TAF

Flughäfen :

Souillac

Brive-la-Gaillarde, Frankreich

Breite: 45-02-28N, Länge: 001-28-59E, Höhe: 311 m

Beobachtung

Neuester Wetterbericht von vor 40 Minuten, um 10:30 UTC
Wind 5 kt aus Ost/Südost, variierte zwischen Ost/Nordost und Südwest
Temperatur 28°C
Luftfeuchtigkeit 42%
Luftdruck 1016 hPa
Sichtweite 10 km oder mehr
keine Wolken unter 1500 m und keine Kumulonimbus oder Gewitterwolken

METAR: LFSL 191030Z AUTO 12005KT 060V220 CAVOK 28/14 Q1016 NOSIG

Zeit: 13:10 (11:10 UTC)

Prognose

Neuester Wetterbericht von vor 3 Stunden und 10 Minuten, um 08:00 UTC
Gültige Prognose vom 19 um 09 UTC bis 19 um 18 UTC
Wind 2 kt aus unterschiedlichen Richtungen
Sichtweite 10 km oder mehr
keine Wolken unter 1500 m und keine Kumulonimbus oder Gewitterwolken

TAF: LFSL 190800Z 1909/1918 VRB02KT CAVOK

Wetterbeobachtungen und Prognosen von mehr als 4000 Flughäfen (METAR und TAF Bericht).

Die verfügbaren Stationen werden durch gelbe und rote Markierungen auf der Karte dargestellt.

Führen Sie die Maus auf sie, um den Namen der Station zu sehen.

Darauf klicken, um die Beobachtung von Wetterbeobachtungen und Prognosen zu sehen.

Um die Karte zu ändern : klicken Sie auf den grünen Tasten mit einem schwarzen Kreuz Zum Vergrößern, auf den grünen Button mit einem Gedankenstrich zu verkleinern, oder auf die grünen Pfeile für benachbarte Karten.


METAR-TAF: